Time;durP1;ratioP1;P1;durP2;ratioP2;P2;SDS_P1;SDS_P2;PMS_P1;PMS_P2;Temp;Humidity;BMP_temperature;BMP_pressure;BME280_temperature;BME280_humidity;BME280_pressure;Samples;Min_cycle;Max_cycle;Signal;HPM_P1;HPM_P2
2023/02/18 00:00:26;;;;;;;;;;;;;;;6.73;71.09;101583.56;1952775;73;20110;-41
2023/02/18 00:02:54;;;;;;;;;;;;;;;6.73;71.06;101578.33;1951364;73;20168;-42
2023/02/18 00:05:22;;;;;;;;;;;;;;;6.76;71.08;101582.23;1941667;74;20143;-39
2023/02/18 00:07:50;;;;;;;;;;;;;;;6.78;71.23;101587.02;1926506;74;20403;-40
2023/02/18 00:10:18;;;;;;;;;;;;;;;6.80;71.12;101580.01;1937099;74;20147;-39
2023/02/18 00:12:46;;;;;;;;;;;;;;;6.83;71.01;101586.53;1943315;74;20155;-40
2023/02/18 00:15:13;;;;;;;;;;;;;;;6.84;70.95;101587.39;1946181;74;20117;-41
2023/02/18 00:17:41;;;;;;;;;;;;;;;6.83;70.89;101586.53;1941024;74;20112;-40
2023/02/18 00:20:09;;;;;;;;;;;;;;;6.82;70.87;101600.48;1948479;74;20112;-40
2023/02/18 00:22:37;;;;;;;;;;;;;;;6.81;70.85;101598.77;1948793;74;20100;-41
2023/02/18 00:25:05;;;;;;;;;;;;;;;6.77;70.85;101606.23;1946785;74;20171;-42
2023/02/18 00:27:33;;;;;;;;;;;;;;;6.72;70.95;101597.55;1936303;74;20103;-40
2023/02/18 00:30:02;;;;;;;;;;;;;;;6.65;70.97;101601.10;1940444;74;20105;-41
2023/02/18 00:32:30;;;;;;;;;;;;;;;6.56;71.01;101606.83;1948655;74;20120;-40
2023/02/18 00:35:00;;;;;;;;;;;;;;;6.51;71.01;101596.86;1948554;74;20140;-41
2023/02/18 00:37:27;;;;;;;;;;;;;;;6.44;71.09;101603.47;1947037;74;20116;-40
2023/02/18 00:39:55;;;;;;;;;;;;;;;6.38;71.15;101599.13;1948670;74;20120;-40
2023/02/18 00:42:23;;;;;;;;;;;;;;;6.33;71.19;101600.48;1928162;74;20102;-44
2023/02/18 00:44:50;;;;;;;;;;;;;;;6.31;71.33;101594.41;1929510;74;20117;-44
2023/02/18 00:47:19;;;;;;;;;;;;;;;6.30;71.34;101595.72;1930196;74;20118;-41
2023/02/18 00:49:46;;;;;;;;;;;;;;;6.27;71.38;101590.50;1926596;74;20118;-43
2023/02/18 00:52:14;;;;;;;;;;;;;;;6.25;71.32;101593.13;1924842;75;20570;-43
2023/02/18 00:54:42;;;;;;;;;;;;;;;6.23;71.37;101588.34;1926198;74;20102;-44
2023/02/18 00:57:10;;;;;;;;;;;;;;;6.22;71.36;101587.08;1946376;74;20113;-41
2023/02/18 00:59:38;;;;;;;;;;;;;;;6.21;71.39;101589.25;1938519;74;20114;-44
2023/02/18 01:02:06;;;;;;;;;;;;;;;6.21;71.36;101591.41;1924075;75;20116;-46
2023/02/18 01:04:34;;;;;;;;;;;;;;;6.21;71.36;101586.63;1940720;73;20174;-43
2023/02/18 01:07:02;;;;;;;;;;;;;;;6.21;71.28;101590.55;1954237;73;20116;-44
2023/02/18 01:09:29;;;;;;;;;;;;;;;6.19;71.29;101584.88;1954499;73;20116;-44
2023/02/18 01:11:57;;;;;;;;;;;;;;;6.21;71.29;101590.55;1955143;73;20100;-41
2023/02/18 01:14:25;;;;;;;;;;;;;;;6.21;71.27;101598.40;1954929;73;20160;-42
2023/02/18 01:16:52;;;;;;;;;;;;;;;6.19;71.21;101597.95;1953822;73;20100;-42
2023/02/18 01:19:20;;;;;;;;;;;;;;;6.20;71.19;101592.31;1953168;73;20146;-42
2023/02/18 01:21:48;;;;;;;;;;;;;;;6.18;71.20;101591.01;1926103;73;20276;-42
2023/02/18 01:24:15;;;;;;;;;;;;;;;6.19;71.23;101599.72;1954300;73;20124;-42
2023/02/18 01:26:43;;;;;;;;;;;;;;;6.17;71.24;101590.56;1952981;73;20142;-43
2023/02/18 01:29:11;;;;;;;;;;;;;;;6.16;71.19;101598.00;1953412;73;20151;-42
2023/02/18 01:31:40;;;;;;;;;;;;;;;6.17;71.17;101594.48;1953476;73;20592;-42
2023/02/18 01:34:08;;;;;;;;;;;;;;;6.18;71.13;101590.16;1953230;73;20112;-42
2023/02/18 01:36:36;;;;;;;;;;;;;;;6.17;71.12;101595.80;1949459;73;20116;-41
2023/02/18 01:39:05;;;;;;;;;;;;;;;6.16;71.07;101593.19;1954050;73;20104;-42
2023/02/18 01:41:33;;;;;;;;;;;;;;;6.13;71.05;101595.39;1952990;73;20355;-42
2023/02/18 01:44:11;;;;;;;;;;;;;;;6.11;71.08;101586.70;1952907;73;20124;-43
2023/02/18 01:46:38;;;;;;;;;;;;;;;6.12;71.03;101598.02;1955478;73;20366;-41
2023/02/18 01:49:07;;;;;;;;;;;;;;;6.11;71.00;101600.22;1954791;73;20120;-41
2023/02/18 01:51:36;;;;;;;;;;;;;;;6.10;70.98;101599.33;1952894;73;20151;-42
2023/02/18 01:54:08;;;;;;;;;;;;;;;6.10;70.92;101595.41;1952776;73;20112;-42
2023/02/18 01:56:37;;;;;;;;;;;;;;;6.09;70.91;101596.75;1951882;73;20105;-43
2023/02/18 01:59:13;;;;;;;;;;;;;;;6.07;70.87;101594.14;1953134;73;20160;-40
2023/02/18 02:01:42;;;;;;;;;;;;;;;6.05;70.84;101598.52;1952936;73;20120;-40
2023/02/18 02:04:10;;;;;;;;;;;;;;;6.04;70.79;101602.00;1953445;73;20118;-42
2023/02/18 02:06:38;;;;;;;;;;;;;;;6.04;70.71;101607.22;1953562;73;20146;-42
2023/02/18 02:09:07;;;;;;;;;;;;;;;6.02;70.62;101608.12;1952390;73;20120;-44
2023/02/18 02:11:36;;;;;;;;;;;;;;;5.99;70.59;101602.45;1953570;73;20160;-47
2023/02/18 02:14:11;;;;;;;;;;;;;;;5.99;70.57;101602.04;1952082;73;20147;-45
2023/02/18 02:16:44;;;;;;;;;;;;;;;5.96;70.48;101606.42;1952976;73;20142;-42
2023/02/18 02:19:22;;;;;;;;;;;;;;;5.95;70.44;101605.53;1951982;73;20104;-42
2023/02/18 02:21:53;;;;;;;;;;;;;;;5.95;70.42;101605.94;1952086;72;20111;-39
2023/02/18 02:24:28;;;;;;;;;;;;;;;5.93;70.23;101606.39;1950679;73;20116;-41
2023/02/18 02:27:14;;;;;;;;;;;;;;;5.93;69.70;101609.01;1953529;73;20108;-43
2023/02/18 02:29:44;;;;;;;;;;;;;;;5.95;69.77;101604.64;1954650;73;20108;-43
2023/02/18 02:32:29;;;;;;;;;;;;;;;5.95;69.66;101608.14;1951520;73;20146;-41
2023/02/18 02:35:15;;;;;;;;;;;;;;;5.96;69.51;101609.03;1953540;73;20116;-41
2023/02/18 02:37:57;;;;;;;;;;;;;;;5.95;69.65;101597.69;1946767;73;20146;-43
2023/02/18 02:40:43;;;;;;;;;;;;;;;5.95;69.61;101597.69;1952450;73;20163;-40
2023/02/18 02:43:31;;;;;;;;;;;;;;;5.96;69.57;101593.34;1952875;73;20105;-40
2023/02/18 02:46:01;;;;;;;;;;;;;;;5.96;69.27;101598.58;1951386;73;20100;-42
2023/02/18 02:48:30;;;;;;;;;;;;;;;5.95;69.24;101598.10;1952739;73;20374;-41
2023/02/18 02:51:02;;;;;;;;;;;;;;;5.95;69.18;101595.07;1951263;73;20187;-41
2023/02/18 02:53:31;;;;;;;;;;;;;;;5.95;69.07;101594.18;1949826;73;20116;-42
2023/02/18 02:55:59;;;;;;;;;;;;;;;5.96;68.84;101595.96;1944918;74;20120;-42
2023/02/18 02:58:28;;;;;;;;;;;;;;;5.95;68.68;101579.80;1945004;74;20390;-42
2023/02/18 03:01:03;;;;;;;;;;;;;;;5.93;68.54;101588.95;1944976;74;20116;-42
2023/02/18 03:03:36;;;;;;;;;;;;;;;5.93;68.58;101592.02;1931925;73;20129;-41
2023/02/18 03:06:10;;;;;;;;;;;;;;;5.93;68.51;101593.33;1950284;72;20465;-43
2023/02/18 03:08:39;;;;;;;;;;;;;;;5.92;68.16;101595.08;1959178;73;20116;-42
2023/02/18 03:11:09;;;;;;;;;;;;;;;5.92;68.03;101601.61;1959116;73;20116;-42
2023/02/18 03:13:44;;;;;;;;;;;;;;;5.92;68.10;101599.41;1968184;73;20112;-43
2023/02/18 03:16:17;;;;;;;;;;;;;;;5.88;68.13;101599.87;1952835;73;20123;-42
2023/02/18 03:18:52;;;;;;;;;;;;;;;5.87;68.14;101598.59;1974294;73;20111;-43
2023/02/18 03:21:24;;;;;;;;;;;;;;;5.85;68.01;101597.30;1963166;73;20104;-41
2023/02/18 03:24:08;;;;;;;;;;;;;;;5.85;68.13;101595.13;1971794;73;20100;-41
2023/02/18 03:26:37;;;;;;;;;;;;;;;5.83;68.06;101582.06;1972604;73;20115;-42
2023/02/18 03:29:07;;;;;;;;;;;;;;;5.81;67.98;101589.05;1967638;73;20197;-42
2023/02/18 03:31:37;;;;;;;;;;;;;;;5.76;67.81;101585.14;1960604;73;20378;-42
2023/02/18 03:34:13;;;;;;;;;;;;;;;5.74;67.91;101586.04;1973640;73;20197;-45
2023/02/18 03:36:43;;;;;;;;;;;;;;;5.75;67.96;101587.31;1971779;73;20381;-43
2023/02/18 03:39:14;;;;;;;;;;;;;;;5.76;68.01;101589.06;1977064;73;20234;-42
2023/02/18 03:41:42;;;;;;;;;;;;;;;5.77;67.94;101595.14;1972670;73;20146;-44
2023/02/18 03:44:10;;;;;;;;;;;;;;;5.77;67.96;101599.06;1972651;73;20134;-43
2023/02/18 03:46:39;;;;;;;;;;;;;;;5.76;67.89;101591.67;1972532;73;20115;-43
2023/02/18 03:49:07;;;;;;;;;;;;;;;5.73;67.91;101589.06;1976020;73;20142;-42
2023/02/18 03:51:37;;;;;;;;;;;;;;;5.70;67.90;101581.27;1975680;73;20159;-41
2023/02/18 03:54:05;;;;;;;;;;;;;;;5.69;67.94;101589.97;1964665;73;20289;-41
2023/02/18 03:56:34;;;;;;;;;;;;;;;5.69;67.87;101591.72;1971199;71;20127;-43
2023/02/18 03:59:01;;;;;;;;;;;;;;;5.67;67.63;101588.25;1973469;73;20115;-43
2023/02/18 04:01:29;;;;;;;;;;;;;;;5.64;67.76;101589.11;1972852;72;20143;-47
2023/02/18 04:03:57;;;;;;;;;;;;;;;5.63;67.66;101580.00;1974820;73;20186;-44
2023/02/18 04:06:25;;;;;;;;;;;;;;;5.64;67.42;101588.25;1961664;73;20116;-41
2023/02/18 04:08:53;;;;;;;;;;;;;;;5.64;67.37;101588.25;1953212;73;20116;-40
2023/02/18 04:11:20;;;;;;;;;;;;;;;5.64;67.32;101593.03;1953497;73;20104;-40
2023/02/18 04:13:48;;;;;;;;;;;;;;;5.62;67.14;101588.25;1954553;73;20112;-40
2023/02/18 04:16:16;;;;;;;;;;;;;;;5.58;67.20;101584.79;1952987;73;20222;-38
2023/02/18 04:18:44;;;;;;;;;;;;;;;5.57;67.17;101574.34;1952969;73;20112;-39
2023/02/18 04:21:11;;;;;;;;;;;;;;;5.56;67.07;101576.09;1951172;73;20112;-45
2023/02/18 04:23:39;;;;;;;;;;;;;;;5.55;67.08;101576.98;1952578;73;20139;-38
2023/02/18 04:26:07;;;;;;;;;;;;;;;5.52;67.04;101576.13;1953169;73;20116;-38
2023/02/18 04:28:34;;;;;;;;;;;;;;;5.48;67.07;101570.47;1952798;73;20112;-41
2023/02/18 04:31:04;;;;;;;;;;;;;;;5.45;67.12;101573.97;1953090;73;20124;-38
2023/02/18 04:33:32;;;;;;;;;;;;;;;5.40;67.15;101572.70;1952804;73;20108;-38
2023/02/18 04:35:59;;;;;;;;;;;;;;;5.37;67.13;101570.09;1952865;73;20104;-38
2023/02/18 04:38:27;;;;;;;;;;;;;;;5.37;67.20;101579.68;1952849;73;20112;-38
2023/02/18 04:40:55;;;;;;;;;;;;;;;5.35;67.22;101578.38;1952872;73;20104;-38
2023/02/18 04:43:22;;;;;;;;;;;;;;;5.34;67.19;101585.77;1952766;73;20142;-38
2023/02/18 04:45:50;;;;;;;;;;;;;;;5.34;67.21;101576.63;1952894;73;20120;-38
2023/02/18 04:48:18;;;;;;;;;;;;;;;5.34;67.21;101580.55;1952841;73;20139;-39
2023/02/18 04:50:46;;;;;;;;;;;;;;;5.35;67.21;101578.38;1952978;73;20202;-38
2023/02/18 04:53:13;;;;;;;;;;;;;;;5.37;67.17;101585.77;1952783;73;20142;-38
2023/02/18 04:55:41;;;;;;;;;;;;;;;5.39;67.16;101589.68;1952928;73;20116;-39
2023/02/18 04:58:09;;;;;;;;;;;;;;;5.38;67.18;101590.09;1952800;73;20113;-38
2023/02/18 05:00:37;;;;;;;;;;;;;;;5.43;67.20;101594.01;1952834;73;20112;-38
2023/02/18 05:03:04;;;;;;;;;;;;;;;5.47;67.15;101590.95;1952965;73;20367;-38
2023/02/18 05:05:34;;;;;;;;;;;;;;;5.49;67.10;101586.58;1952756;73;20116;-38
2023/02/18 05:08:02;;;;;;;;;;;;;;;5.50;67.09;101585.72;1952836;73;20109;-39
2023/02/18 05:10:30;;;;;;;;;;;;;;;5.50;67.05;101585.72;1952822;73;20195;-39
2023/02/18 05:12:58;;;;;;;;;;;;;;;5.54;67.04;101583.52;1952947;73;20108;-38
2023/02/18 05:15:26;;;;;;;;;;;;;;;5.56;67.04;101583.07;1952934;73;20147;-38
2023/02/18 05:17:54;;;;;;;;;;;;;;;5.58;67.05;101584.79;1952949;73;20143;-39
2023/02/18 05:20:21;;;;;;;;;;;;;;;5.59;67.02;101588.30;1952915;73;20146;-39
2023/02/18 05:22:49;;;;;;;;;;;;;;;5.64;66.99;101585.64;1952865;73;20100;-40
2023/02/18 05:25:17;;;;;;;;;;;;;;;5.69;67.02;101587.35;1952935;73;20194;-39
2023/02/18 05:27:45;;;;;;;;;;;;;;;5.78;66.96;101588.61;1952964;73;20151;-38
2023/02/18 05:30:13;;;;;;;;;;;;;;;5.86;66.93;101585.09;1952918;73;20116;-38
2023/02/18 05:32:40;;;;;;;;;;;;;;;5.94;66.93;101589.84;1952925;73;20100;-38
2023/02/18 05:35:08;;;;;;;;;;;;;;;6.03;66.90;101586.31;1952925;73;20116;-37
2023/02/18 05:37:36;;;;;;;;;;;;;;;6.25;66.85;101587.89;1952895;73;20195;-38
2023/02/18 05:40:04;;;;;;;;;;;;;;;6.45;66.74;101590.35;1952956;73;20112;-38
2023/02/18 05:42:32;;;;;;;;;;;;;;;6.50;66.64;101585.95;1952932;73;20112;-38
2023/02/18 05:45:00;;;;;;;;;;;;;;;6.50;66.57;101584.65;1952916;73;20113;-38
2023/02/18 05:47:28;;;;;;;;;;;;;;;6.52;66.54;101578.95;1952939;73;20116;-38
2023/02/18 05:49:55;;;;;;;;;;;;;;;6.54;66.55;101577.19;1952861;73;20105;-39
2023/02/18 05:52:23;;;;;;;;;;;;;;;6.55;66.55;101572.40;1952923;73;20109;-38
2023/02/18 05:54:51;;;;;;;;;;;;;;;6.56;66.41;101576.73;1952928;73;20116;-38
2023/02/18 05:57:19;;;;;;;;;;;;;;;6.60;66.25;101572.34;1952883;73;20112;-38
2023/02/18 05:59:48;;;;;;;;;;;;;;;6.58;66.13;101572.80;1953040;73;20104;-38
2023/02/18 06:02:15;;;;;;;;;;;;;;;6.63;66.12;101564.47;1952948;73;20112;-39
2023/02/18 06:04:43;;;;;;;;;;;;;;;6.70;66.01;101556.13;1952863;73;20112;-39
2023/02/18 06:07:11;;;;;;;;;;;;;;;6.76;65.85;101545.59;1952877;73;20104;-38
2023/02/18 06:09:39;;;;;;;;;;;;;;;6.87;65.75;101551.58;1952862;73;20112;-38
2023/02/18 06:12:07;;;;;;;;;;;;;;;7.43;65.96;101547.88;1953049;73;20410;-39
2023/02/18 06:14:34;;;;;;;;;;;;;;;7.83;65.11;101542.06;1952860;73;20142;-38
2023/02/18 06:17:02;;;;;;;;;;;;;;;8.20;64.71;101528.83;1952824;73;20116;-39
2023/02/18 06:19:30;;;;;;;;;;;;;;;8.52;64.35;101532.67;1952875;73;20097;-39
2023/02/18 06:21:57;;;;;;;;;;;;;;;8.65;64.26;101528.94;1952872;73;20118;-39
2023/02/18 06:24:25;;;;;;;;;;;;;;;9.11;64.20;101528.08;1952949;73;20113;-38
2023/02/18 06:26:53;;;;;;;;;;;;;;;9.60;62.19;101517.80;1952930;73;20116;-38
2023/02/18 06:29:21;;;;;;;;;;;;;;;9.65;61.40;101519.88;1952906;73;20146;-38
2023/02/18 06:31:48;;;;;;;;;;;;;;;10.15;61.34;101524.84;1952986;73;20206;-39
2023/02/18 06:34:16;;;;;;;;;;;;;;;11.25;61.46;101525.88;1952976;73;20209;-38
2023/02/18 06:36:44;;;;;;;;;;;;;;;11.79;61.15;101534.37;1952901;73;20116;-39
2023/02/18 06:39:12;;;;;;;;;;;;;;;11.98;61.31;101541.27;1952921;73;20141;-38
2023/02/18 06:41:39;;;;;;;;;;;;;;;11.86;61.03;101541.18;1952901;73;20117;-39
2023/02/18 06:44:07;;;;;;;;;;;;;;;11.73;61.04;101538.49;1952815;73;20104;-40
2023/02/18 06:46:35;;;;;;;;;;;;;;;11.78;60.59;101537.91;1952898;73;20112;-39
2023/02/18 06:49:03;;;;;;;;;;;;;;;11.95;60.32;101551.48;1952913;73;20112;-39
2023/02/18 06:51:31;;;;;;;;;;;;;;;11.97;59.74;101544.37;1952909;73;20116;-39
2023/02/18 06:53:58;;;;;;;;;;;;;;;11.93;57.48;101541.43;1952898;73;20111;-38
2023/02/18 06:56:26;;;;;;;;;;;;;;;11.72;56.64;101544.70;1952864;73;20143;-39
2023/02/18 06:58:54;;;;;;;;;;;;;;;11.43;56.45;101546.90;1952829;73;20140;-39
2023/02/18 07:01:22;;;;;;;;;;;;;;;11.12;56.52;101542.50;1952928;73;20143;-39
2023/02/18 07:03:49;;;;;;;;;;;;;;;11.40;56.96;101550.50;1952971;73;20112;-39
2023/02/18 07:06:17;;;;;;;;;;;;;;;11.55;55.37;101539.95;1952892;73;20163;-39
2023/02/18 07:08:45;;;;;;;;;;;;;;;11.49;54.35;101546.27;1944434;72;20104;-38
2023/02/18 07:11:13;;;;;;;;;;;;;;;11.54;53.99;101543.02;1942606;74;20109;-39
2023/02/18 07:13:40;;;;;;;;;;;;;;;11.91;52.81;101541.05;1942692;74;20101;-39
2023/02/18 07:16:08;;;;;;;;;;;;;;;11.93;52.92;101525.59;1942656;74;20113;-39
2023/02/18 07:18:36;;;;;;;;;;;;;;;12.38;52.72;101528.55;1942698;74;20140;-39
2023/02/18 07:21:04;;;;;;;;;;;;;;;13.13;51.64;101513.51;1942698;74;20118;-39
2023/02/18 07:23:32;;;;;;;;;;;;;;;13.12;50.45;101518.37;1942658;74;20113;-39
2023/02/18 07:26:03;;;;;;;;;;;;;;;13.03;48.52;101520.52;1942538;74;20116;-38
2023/02/18 07:28:31;;;;;;;;;;;;;;;12.91;49.02;101498.02;1942806;74;20371;-38
2023/02/18 07:30:59;;;;;;;;;;;;;;;13.19;48.13;101504.95;1942671;74;20116;-38
2023/02/18 07:33:27;;;;;;;;;;;;;;;13.59;47.62;101496.80;1942635;74;20159;-38
2023/02/18 07:35:55;;;;;;;;;;;;;;;13.64;47.82;101490.87;1942654;74;20147;-39
2023/02/18 07:38:24;;;;;;;;;;;;;;;13.50;48.16;101479.06;1942600;74;20113;-39
2023/02/18 07:40:52;;;;;;;;;;;;;;;12.97;47.94;101475.34;1942691;74;20116;-39
2023/02/18 07:43:19;;;;;;;;;;;;;;;12.31;48.84;101483.84;1942698;74;20113;-38
2023/02/18 07:45:47;;;;;;;;;;;;;;;11.77;49.52;101475.05;1942695;74;20160;-39
2023/02/18 07:48:15;;;;;;;;;;;;;;;11.35;50.41;101464.92;1942731;74;20109;-38
2023/02/18 07:50:44;;;;;;;;;;;;;;;11.14;51.42;101461.18;1942676;74;20104;-38
2023/02/18 07:53:13;;;;;;;;;;;;;;;10.76;51.90;101468.88;1942746;74;20150;-39
2023/02/18 07:55:50;;;;;;;;;;;;;;;10.72;52.37;101487.85;1942647;74;20409;-40
2023/02/18 07:58:25;;;;;;;;;;;;;;;10.55;52.55;101479.53;1942910;74;20426;-38
2023/02/18 08:00:53;;;;;;;;;;;;;;;10.27;53.24;101476.74;1942798;74;20105;-39
2023/02/18 08:03:23;;;;;;;;;;;;;;;10.21;53.93;101485.66;1942631;74;20116;-38
2023/02/18 08:05:51;;;;;;;;;;;;;;;10.40;53.54;101450.10;1942801;74;20397;-38
2023/02/18 08:08:20;;;;;;;;;;;;;;;11.03;52.40;101479.09;1942648;72;20121;-38
2023/02/18 08:10:49;;;;;;;;;;;;;;;11.19;51.16;101463.23;1942646;74;20121;-38
2023/02/18 08:13:17;;;;;;;;;;;;;;;11.55;50.42;101447.17;1942782;74;20116;-39
2023/02/18 08:15:45;;;;;;;;;;;;;;;12.05;49.44;101445.13;1942577;74;20101;-39
2023/02/18 08:18:20;;;;;;;;;;;;;;;12.08;49.45;101441.52;1942651;74;20176;-39
2023/02/18 08:20:48;;;;;;;;;;;;;;;12.47;47.86;101408.05;1942688;74;20144;-38
2023/02/18 08:23:16;;;;;;;;;;;;;;;12.33;48.54;101450.78;1942667;74;20100;-38
2023/02/18 08:25:48;;;;;;;;;;;;;;;12.02;48.95;101448.33;1942668;74;20109;-38
2023/02/18 08:28:16;;;;;;;;;;;;;;;11.75;49.83;101445.67;1942720;74;20366;-40
2023/02/18 08:30:45;;;;;;;;;;;;;;;11.68;50.28;101447.64;1942637;74;20147;-39
2023/02/18 08:33:13;;;;;;;;;;;;;;;11.74;50.03;101422.36;1942680;74;20128;-39
2023/02/18 08:35:41;;;;;;;;;;;;;;;11.69;49.93;101457.30;1942637;74;20101;-39
2023/02/18 08:38:09;;;;;;;;;;;;;;;12.14;49.69;101429.44;1942681;74;20117;-38
2023/02/18 08:40:37;;;;;;;;;;;;;;;12.50;48.71;101430.37;1942654;73;20113;-38
2023/02/18 08:43:05;;;;;;;;;;;;;;;12.92;47.95;101421.78;1942767;74;20147;-38
2023/02/18 08:45:32;;;;;;;;;;;;;;;12.55;48.72;101413.90;1942658;74;20113;-38
2023/02/18 08:48:00;;;;;;;;;;;;;;;11.84;49.33;101411.07;1942630;74;20140;-38
2023/02/18 08:50:28;;;;;;;;;;;;;;;10.96;50.78;101395.84;1942648;74;20151;-38
2023/02/18 08:52:59;;;;;;;;;;;;;;;10.36;52.58;101412.89;1942676;74;20116;-39
2023/02/18 08:55:26;;;;;;;;;;;;;;;10.07;53.84;101389.09;1942715;74;20117;-39
2023/02/18 08:57:54;;;;;;;;;;;;;;;9.97;54.64;101399.86;1942651;74;20143;-39
2023/02/18 09:00:22;;;;;;;;;;;;;;;10.43;54.31;101389.44;1942618;74;20109;-38
2023/02/18 09:02:50;;;;;;;;;;;;;;;10.73;53.66;101384.20;1942646;74;20121;-38
2023/02/18 09:05:18;;;;;;;;;;;;;;;10.79;53.82;101380.09;1942668;74;20202;-40
2023/02/18 09:07:45;;;;;;;;;;;;;;;11.38;52.60;101389.70;1942764;74;20147;-39
2023/02/18 09:10:13;;;;;;;;;;;;;;;11.87;50.51;101363.45;1951821;73;20105;-38
2023/02/18 09:12:41;;;;;;;;;;;;;;;11.77;50.91;101369.97;1952814;73;20104;-38
2023/02/18 09:15:09;;;;;;;;;;;;;;;11.23;51.50;101357.67;1952894;73;20351;-39
2023/02/18 09:17:37;;;;;;;;;;;;;;;11.34;52.13;101364.78;1952870;73;20146;-39
2023/02/18 09:20:05;;;;;;;;;;;;;;;11.38;51.75;101355.88;1952772;73;20108;-39
2023/02/18 09:22:32;;;;;;;;;;;;;;;11.58;51.15;101349.92;1952724;73;20104;-39
2023/02/18 09:25:00;;;;;;;;;;;;;;;11.83;50.16;101360.52;1952794;73;20139;-39
2023/02/18 09:27:28;;;;;;;;;;;;;;;11.59;50.30;101349.88;1952764;73;20143;-38
2023/02/18 09:29:56;;;;;;;;;;;;;;;11.87;50.36;101344.97;1952800;73;20116;-38
2023/02/18 09:32:24;;;;;;;;;;;;;;;11.82;49.77;101339.45;1952804;73;20112;-38
2023/02/18 09:34:52;;;;;;;;;;;;;;;11.56;50.35;101305.59;1952797;73;20154;-39
2023/02/18 09:37:19;;;;;;;;;;;;;;;11.30;51.08;101306.02;1952671;73;20199;-39
2023/02/18 09:39:47;;;;;;;;;;;;;;;11.23;51.47;101319.45;1952942;73;20144;-39
2023/02/18 09:42:16;;;;;;;;;;;;;;;11.27;51.62;101313.16;1952859;73;20143;-38
2023/02/18 09:44:49;;;;;;;;;;;;;;;11.23;52.03;101304.95;1952973;73;20116;-39
2023/02/18 09:47:18;;;;;;;;;;;;;;;11.30;51.92;101319.66;1952789;73;20116;-39
2023/02/18 09:49:47;;;;;;;;;;;;;;;11.16;52.06;101302.53;1952788;73;20155;-39
2023/02/18 09:52:16;;;;;;;;;;;;;;;11.02;52.20;101283.66;1951368;73;20112;-39
2023/02/18 09:54:44;;;;;;;;;;;;;;;11.09;52.15;101287.82;1952774;73;20139;-36
2023/02/18 09:57:25;;;;;;;;;;;;;;;11.06;52.50;101289.69;1952981;73;20096;-39
2023/02/18 09:59:57;;;;;;;;;;;;;;;10.86;52.74;101288.54;1952937;73;20120;-38
2023/02/18 10:02:25;;;;;;;;;;;;;;;10.56;52.93;101264.03;1952891;73;20191;-38
2023/02/18 10:04:53;;;;;;;;;;;;;;;10.26;53.21;101277.17;1952935;73;20350;-39
2023/02/18 10:07:25;;;;;;;;;;;;;;;10.01;53.63;101277.88;1952940;73;20128;-39
2023/02/18 10:09:54;;;;;;;;;;;;;;;9.92;54.05;101261.01;1952275;73;20385;-36
2023/02/18 10:12:23;;;;;;;;;;;;;;;10.12;53.62;101266.17;1953006;72;20146;-37
2023/02/18 10:14:53;;;;;;;;;;;;;;;10.21;53.19;101240.91;1952862;73;20112;-38
2023/02/18 10:17:22;;;;;;;;;;;;;;;10.36;53.04;101264.16;1952903;73;20108;-38
2023/02/18 10:19:51;;;;;;;;;;;;;;;10.30;52.65;101226.16;1952907;73;20100;-38
2023/02/18 10:22:20;;;;;;;;;;;;;;;10.17;52.91;101253.75;1952896;73;20175;-38
2023/02/18 10:24:55;;;;;;;;;;;;;;;10.13;53.03;101255.61;1952924;73;20139;-38
2023/02/18 10:27:27;;;;;;;;;;;;;;;10.04;53.02;101242.25;1952836;73;20116;-38
2023/02/18 10:29:56;;;;;;;;;;;;;;;9.93;53.54;101237.76;1952908;73;20142;-38
2023/02/18 10:32:28;;;;;;;;;;;;;;;9.81;53.54;101235.46;1949997;73;20100;-38
2023/02/18 10:35:03;;;;;;;;;;;;;;;9.74;53.15;101229.96;1952524;73;20505;-38
2023/02/18 10:37:38;;;;;;;;;;;;;;;9.69;53.60;101251.60;1952779;73;20117;-39
2023/02/18 10:40:08;;;;;;;;;;;;;;;9.65;53.84;101263.50;1951793;73;20112;-39
2023/02/18 10:42:43;;;;;;;;;;;;;;;9.57;54.13;101229.11;1952356;73;20117;-38
2023/02/18 10:45:30;;;;;;;;;;;;;;;9.52;54.23;101234.51;1951942;73;20104;-38
2023/02/18 10:48:00;;;;;;;;;;;;;;;9.49;54.45;101196.92;1952792;73;20144;-39
2023/02/18 10:50:29;;;;;;;;;;;;;;;9.40;55.11;101209.86;1947885;73;20112;-38
2023/02/18 10:52:58;;;;;;;;;;;;;;;9.29;55.80;101223.27;1952911;73;20116;-39
2023/02/18 10:55:42;;;;;;;;;;;;;;;9.24;56.13;101145.00;1952906;73;20096;-39
2023/02/18 10:58:18;;;;;;;;;;;;;;;9.19;56.42;101216.09;1953053;73;20105;-39
2023/02/18 11:00:45;;;;;;;;;;;;;;;9.17;56.77;101211.33;1939455;73;20151;-37
2023/02/18 11:03:15;;;;;;;;;;;;;;;9.21;56.62;101192.41;1952900;73;20112;-38
2023/02/18 11:05:43;;;;;;;;;;;;;;;9.23;56.57;101199.33;1953054;73;20100;-87
2023/02/18 11:08:14;;;;;;;;;;;;;;;9.20;56.69;101207.31;1952861;73;20120;-38
2023/02/18 11:10:43;;;;;;;;;;;;;;;9.21;56.89;101185.84;1944838;73;20121;-38
2023/02/18 11:13:12;;;;;;;;;;;;;;;9.15;57.09;101226.27;1942783;74;20596;-38
2023/02/18 11:15:42;;;;;;;;;;;;;;;9.07;56.95;101188.80;1942710;74;20147;-38
2023/02/18 11:18:14;;;;;;;;;;;;;;;9.04;57.38;101213.86;1940334;74;20405;-38
2023/02/18 11:20:44;;;;;;;;;;;;;;;9.00;57.37;101238.45;1941273;74;20101;-38
2023/02/18 11:23:13;;;;;;;;;;;;;;;8.93;57.49;101188.28;1940683;74;20105;-38
2023/02/18 11:25:42;;;;;;;;;;;;;;;8.88;57.43;101186.64;1942636;74;20175;-38
2023/02/18 11:28:14;;;;;;;;;;;;;;;8.87;57.27;101216.87;1942696;74;20151;-38
2023/02/18 11:30:46;;;;;;;;;;;;;;;8.85;57.55;101199.87;1942887;74;20139;-38
2023/02/18 11:33:15;;;;;;;;;;;;;;;8.86;57.40;101174.00;1942724;74;20409;-38
2023/02/18 11:35:44;;;;;;;;;;;;;;;8.85;57.59;101177.98;1942712;74;20168;-39
2023/02/18 11:38:19;;;;;;;;;;;;;;;8.84;58.06;101175.81;1938560;74;20179;-38
2023/02/18 11:40:49;;;;;;;;;;;;;;;8.84;58.12;101177.58;1941206;74;20143;-39
2023/02/18 11:43:18;;;;;;;;;;;;;;;8.79;58.12;101156.67;1942063;74;20117;-38
2023/02/18 11:45:46;;;;;;;;;;;;;;;8.81;58.26;101123.36;1942872;74;20113;-39
2023/02/18 11:48:15;;;;;;;;;;;;;;;8.84;57.91;101157.89;1942722;74;20117;-38
2023/02/18 11:50:43;;;;;;;;;;;;;;;8.88;58.12;101145.94;1942651;74;20195;-38
2023/02/18 11:53:16;;;;;;;;;;;;;;;8.90;58.24;101145.91;1942698;74;20144;-38
2023/02/18 11:55:45;;;;;;;;;;;;;;;8.98;58.26;101143.08;1935373;74;20112;-39
2023/02/18 11:58:14;;;;;;;;;;;;;;;9.08;58.25;101148.52;1940995;74;20109;-39
2023/02/18 12:00:43;;;;;;;;;;;;;;;9.21;58.14;101115.75;1942810;74;20117;-38
2023/02/18 12:03:28;;;;;;;;;;;;;;;9.30;57.63;101121.67;1942695;74;20097;-39
2023/02/18 12:05:57;;;;;;;;;;;;;;;9.28;57.67;101133.07;1942695;74;20104;-38
2023/02/18 12:08:27;;;;;;;;;;;;;;;9.20;57.94;101128.92;1940914;74;20116;-39
2023/02/18 12:10:56;;;;;;;;;;;;;;;9.14;58.52;101112.02;1947632;73;20150;-38
2023/02/18 12:13:25;;;;;;;;;;;;;;;9.08;59.14;101120.93;1952777;73;20116;-40
2023/02/18 12:15:54;;;;;;;;;;;;;;;9.02;59.56;101096.15;1952971;73;20113;-38
2023/02/18 12:18:26;;;;;;;;;;;;;;;8.97;60.37;101096.72;1952466;73;20394;-38
2023/02/18 12:21:05;;;;;;;;;;;;;;;8.96;60.96;101102.40;1952878;73;20112;-39
2023/02/18 12:23:45;;;;;;;;;;;;;;;8.88;61.35;101118.83;1951346;73;20406;-39
2023/02/18 12:26:20;;;;;;;;;;;;;;;8.75;62.07;101108.23;1952859;73;20191;-38
2023/02/18 12:28:58;;;;;;;;;;;;;;;8.64;62.50;101025.81;1951419;73;20116;-38
2023/02/18 12:31:44;;;;;;;;;;;;;;;8.54;63.06;101126.67;1967597;72;20516;-38
2023/02/18 12:34:26;;;;;;;;;;;;;;;8.36;63.50;101093.40;2000790;72;20164;-39
2023/02/18 12:37:12;;;;;;;;;;;;;;;8.24;63.97;101098.92;1980137;72;20116;-39
2023/02/18 12:39:41;;;;;;;;;;;;;;;8.15;64.23;101111.80;1959072;73;20159;-37
2023/02/18 12:42:25;;;;;;;;;;;;;;;8.09;65.03;101102.31;1957835;73;20201;-36
2023/02/18 12:45:11;;;;;;;;;;;;;;;8.05;65.32;101041.66;1958426;73;20183;-37
2023/02/18 12:47:56;;;;;;;;;;;;;;;8.00;65.25;101089.41;1959102;73;20163;-37
2023/02/18 12:50:37;;;;;;;;;;;;;;;7.96;65.36;101085.59;1921290;75;20123;-37
2023/02/18 12:53:23;;;;;;;;;;;;;;;7.93;65.18;101055.08;1874529;75;20102;-37
2023/02/18 12:55:56;;;;;;;;;;;;;;;7.91;64.71;101078.70;1921443;75;20122;-37